Latest Weather Observations for Parkes Airport

IDN60801

Issued at 8:05 pm EDT Monday 24 November 2014 (issued every 30 minutes, with the page automatically refreshed every 10 minutes)

About weather observations | Map of weather stations | Latest weather observations for NSW | Other Formats
Station Details ID: 065068 Name: PARKES AIRPORT AWS Lat: -33.13 Lon: 148.24 Height: 323.3 m
Data from the previous 72 hours. | See also: Recent months at Parkes Airport
Date/Time
EDT
Temp
°C
App
Temp
°C
Dew
Point
Rel
Hum
%
Delta-T
°C
Wind Press
QNH
hPa
Press
MSL
hPa
Rain
since 9 am
mm
Dir
 
Spd
km/h
Gust
km/h
Spd
kts
Gust
kts
24/08:00pm 25.5 26.4 16.6 58 5.6 N 7 9 4 5 1010.4 1009.3 0.0
24/07:30pm 26.5 28.5 17.0 56 6.0 WSW 2 6 1 3 1009.7 1008.5 0.0
24/07:00pm 27.4 27.6 15.7 48 7.3 SW 9 13 5 7 1009.0 1007.8 0.0
24/06:30pm 28.1 28.3 15.7 46 7.7 WSW 9 13 5 7 1008.6 1007.4 0.0
24/06:00pm 28.5 28.9 15.4 45 8.1 W 7 13 4 7 1008.4 1007.2 0.0
24/05:30pm 28.8 29.5 15.7 45 8.2 ESE 6 7 3 4 1008.7 1007.5 0.0
24/05:00pm 27.3 26.8 16.0 50 7.0 SSW 13 17 7 9 1009.6 1008.4 0.0
24/04:30pm 27.5 28.2 17.1 53 6.6 SW 9 13 5 7 1010.0 1008.9 0.0
24/04:00pm 27.1 26.6 17.0 54 6.4 SSW 15 22 8 12 1009.6 1008.4 0.0
24/03:30pm 27.6 24.6 16.9 52 6.8 SW 28 35 15 19 1010.2 1009.1 0.0
24/03:09pm 29.0 25.1 15.5 44 8.4 W 30 50 16 27 1010.8 1009.6 0.0
24/03:00pm 30.1 27.6 14.2 38 9.7 W 20 33 11 18 1010.9 1009.7 0.0
24/02:30pm 30.9 27.6 14.1 36 10.3 W 24 32 13 17 1010.5 1009.4 0.0
24/02:00pm 32.2 28.1 13.9 33 11.3 WNW 28 33 15 18 1010.5 1009.4 0.0
24/01:30pm 32.4 29.9 14.1 33 11.3 WNW 20 32 11 17 1010.5 1009.4 0.0
24/01:00pm 32.0 29.2 14.2 34 11.0 WNW 22 30 12 16 1010.9 1009.7 0.0
24/12:30pm 31.5 28.5 13.7 33 10.9 NW 22 30 12 16 1011.2 1010.0 0.0
24/12:00pm 32.5 28.7 13.7 32 11.5 NNW 26 35 14 19 1011.3 1010.1 0.0
24/11:30am 32.4 27.7 13.1 31 11.7 NNW 30 37 16 20 1011.3 1010.1 0.0
24/11:00am 33.0 29.4 14.1 32 11.7 NNW 26 37 14 20 1011.7 1010.5 0.0
24/10:30am 32.1 28.2 13.3 31 11.4 NNW 26 35 14 19 1012.0 1010.8 0.0
24/10:00am 31.4 31.4 14.1 35 10.6 SW 7 11 4 6 1012.0 1010.8 0.0
24/09:30am 29.4 29.0 14.0 39 9.4 ENE 9 15 5 8 1012.0 1010.8 0.0
24/09:00am 28.5 28.1 15.1 44 8.3 ENE 11 15 6 8 1012.6 1011.5 4.2
24/08:30am 28.1 28.4 15.1 45 8.0 E 7 11 4 6 1012.9 1011.8 4.2
24/08:00am 26.9 26.9 15.3 49 7.1 E 9 11 5 6 1013.1 1012.0 4.2
24/07:30am 25.7 25.4 15.4 53 6.3 E 11 15 6 8 1013.1 1012.0 4.2
24/07:00am 24.7 24.2 14.8 54 6.0 ENE 11 13 6 7 1013.3 1012.2 4.2
24/06:30am 23.4 23.7 14.9 59 5.1 ENE 7 9 4 5 1013.0 1011.9 4.2
24/06:00am 24.2 23.3 13.7 52 6.2 E 11 13 6 7 1012.9 1011.8 4.2
24/05:30am 24.7 25.6 13.0 48 6.9 CALM 0 0 0 0 1012.7 1011.6 4.2
24/05:00am 25.2 24.4 12.8 46 7.3 E 9 15 5 8 1012.4 1011.2 4.2
24/04:30am 25.9 23.1 12.7 44 7.8 E 19 24 10 13 1012.2 1011.0 4.2
24/04:00am 25.9 22.7 13.1 45 7.6 E 22 28 12 15 1012.4 1011.2 4.2
24/03:30am 27.3 24.3 12.5 40 8.7 SE 20 26 11 14 1012.7 1011.6 4.2
24/03:00am 25.5 24.9 13.4 47 7.2 ESE 9 11 5 6 1014.1 1012.9 4.2
24/02:30am 26.9 23.9 12.5 40 8.5 E 20 24 11 13 1014.3 1013.1 4.2
24/02:00am 27.5 24.7 13.1 41 8.6 SSE 20 24 11 13 1014.5 1013.3 4.2
24/01:30am 25.1 23.9 15.1 53 6.1 SSW 15 19 8 10 1014.9 1013.7 4.2
24/01:00am 24.9 26.6 15.2 54 5.9 CALM 0 0 0 0 1013.9 1012.8 4.2
24/12:30am 26.3 24.9 13.4 45 7.7 E 13 17 7 9 1013.8 1012.7 4.2
24/12:00am 26.3 24.9 13.4 45 7.7 ESE 13 15 7 8 1013.8 1012.7 4.2
 
Date/Time
EDT
Temp
°C
App
Temp
°C
Dew
Point
Rel
Hum
%
Delta-T
°C
Wind Press
QNH
hPa
Press
MSL
hPa
Rain
since 9 am
mm
Dir
 
Spd
km/h
Gust
km/h
Spd
kts
Gust
kts
23/11:30pm 27.7 24.9 12.5 39 9.0 ESE 19 24 10 13 1013.5 1012.4 4.2
23/11:00pm 27.0 26.6 15.1 48 7.3 S 11 17 6 9 1013.6 1012.5 4.2
23/10:30pm 25.4 27.5 17.1 60 5.2 W 2 7 1 4 1013.4 1012.3 4.2
23/10:00pm 25.9 28.1 16.5 56 5.9 CALM 0 6 0 3 1012.6 1011.5 4.2
23/09:30pm 25.7 26.1 16.3 56 5.8 W 9 11 5 6 1012.0 1010.8 4.2
23/09:00pm 29.4 28.7 13.2 37 9.8 S 9 13 5 7 1011.3 1010.1 4.2
23/08:30pm 27.4 27.6 16.7 52 6.7 E 11 13 6 7 1011.5 1010.3 4.2
23/08:00pm 30.1 30.8 12.1 33 10.7 CALM 0 0 0 0 1011.4 1010.2 4.2
23/07:30pm 31.8 31.3 12.6 31 11.5 SSE 7 11 4 6 1011.4 1010.2 4.2
23/07:00pm 32.8 29.8 11.9 28 12.5 SSE 19 22 10 12 1010.9 1009.7 4.2
23/06:30pm 33.7 31.5 12.1 27 13.0 SSE 15 20 8 11 1010.6 1009.5 4.2
23/06:00pm 33.8 29.9 12.2 27 13.0 SSW 24 33 13 18 1010.0 1008.9 4.2
23/05:30pm 32.5 29.1 13.7 32 11.5 SW 24 32 13 17 1009.6 1008.4 4.2
23/05:00pm 27.7 29.4 18.4 57 6.0 S 7 13 4 7 1010.6 1009.5 4.2
23/04:30pm 31.1 29.7 13.4 34 10.7 WSW 13 26 7 14 1010.0 1008.9 4.2
23/04:29pm 31.7 29.9 12.0 30 11.7 WSW 13 26 7 14 1010.0 1008.9 4.0
23/04:25pm 27.7 21.7 13.3 41 8.6 NW 37 46 20 25 1010.3 1009.2 2.6
23/04:22pm 26.9 21.5 12.9 42 8.3 WNW 33 56 18 30 1009.8 1008.7 1.8
23/04:18pm 33.4 29.0 12.9 28 12.5 WNW 28 46 15 25 1009.8 1008.7 1.0
23/04:00pm 35.5 31.7 7.5 18 15.9 N 17 32 9 17 1009.4 1008.2 0.8
23/03:58pm 32.1 25.7 10.7 27 12.5 WNW 35 67 19 36 1010.0 1008.9 0.8
23/03:52pm 34.2 24.3 6.5 18 15.3 WSW 48 78 26 42 1009.2 1008.0 0.0
23/03:30pm 39.5 32.6 4.8 12 19.2 NNW 30 44 16 24 1008.9 1007.7 0.0
23/03:18pm 40.1 33.0 1.2 9 20.5 NNW 28 46 15 25 1008.9 1007.7 0.0
23/03:00pm 42.0 35.1 2.6 9 21.4 NW 28 39 15 21 1009.2 1008.0 0.0
23/02:30pm 42.9 35.8 3.3 9 21.8 WNW 30 37 16 20 1009.7 1008.5 0.0
23/02:00pm 42.5 35.3 3.0 9 21.6 WNW 30 41 16 22 1010.0 1008.9 0.0
23/01:36pm 42.4 35.6 2.9 9 21.6 NW 28 46 15 25 1010.4 1009.3 0.0
23/01:30pm 42.4 34.8 2.9 9 21.6 NW 32 43 17 23 1010.4 1009.3 0.0
23/01:00pm 41.6 33.9 2.3 9 21.2 NW 32 50 17 27 1010.9 1009.7 0.0
23/12:34pm 41.7 34.0 2.4 9 21.2 NNW 32 50 17 27 1011.3 1010.1 0.0
23/12:30pm 41.3 33.0 2.1 9 21.0 NNW 35 52 19 28 1011.3 1010.1 0.0
23/12:21pm 40.3 32.3 1.4 9 20.5 NNW 33 52 18 28 1011.4 1010.2 0.0
23/12:00pm 41.2 33.8 2.0 9 21.0 NW 30 41 16 22 1011.7 1010.5 0.0
23/11:30am 40.1 32.3 2.7 10 20.1 NNW 33 59 18 32 1011.8 1010.6 0.0
23/11:25am 39.4 31.1 2.2 10 19.8 N 35 59 19 32 1011.9 1010.7 0.0
23/11:00am 39.3 30.6 2.1 10 19.8 NNW 37 54 20 29 1011.8 1010.6 0.0
23/10:51am 38.8 30.8 1.7 10 19.5 N 33 54 18 29 1011.9 1010.7 0.0
23/10:30am 39.2 31.4 2.0 10 19.7 N 32 41 17 22 1011.7 1010.5 0.0
23/10:18am 38.7 31.1 3.0 11 19.1 N 32 50 17 27 1011.7 1010.5 0.0
23/10:00am 38.4 32.7 5.1 13 18.4 N 24 39 13 21 1011.7 1010.5 0.0
23/09:30am 36.4 30.8 5.6 15 17.0 NNE 24 35 13 19 1011.7 1010.5 0.0
23/09:00am 34.9 29.7 7.1 18 15.6 NNE 24 30 13 16 1011.5 1010.3 0.0
23/08:30am 33.5 27.8 6.7 19 14.8 NNE 26 37 14 20 1011.4 1010.2 0.0
23/08:00am 31.7 27.3 6.7 21 13.7 NNE 19 24 10 13 1011.4 1010.2 0.0
23/07:30am 27.7 26.2 8.6 30 10.6 NNE 6 11 3 6 1011.1 1009.9 0.0
23/07:29am 27.5 26.1 8.9 31 10.3 NNE 6 9 3 5 1011.1 1009.9 0.0
23/07:00am 22.5 21.3 9.6 44 7.1 NNE 6 9 3 5 1010.9 1009.7 0.0
23/06:30am 18.8 16.8 8.5 51 5.4 NNE 9 11 5 6 1010.6 1009.5 0.0
23/06:00am 19.5 17.5 8.5 49 5.8 NNE 9 11 5 6 1010.5 1009.4 0.0
23/05:30am 22.3 19.0 8.1 40 7.6 NE 15 19 8 10 1010.1 1009.0 0.0
23/05:00am 20.6 17.9 8.9 47 6.3 ENE 13 15 7 8 1010.2 1009.1 0.0
23/04:30am 20.3 18.7 8.9 48 6.1 NE 7 13 4 7 1010.8 1009.6 0.0
23/04:00am 20.9 20.5 8.2 44 6.7 CALM 0 0 0 0 1011.4 1010.2 0.0
23/03:30am 23.2 20.6 7.7 37 8.2 SE 11 17 6 9 1010.6 1009.5 0.0
23/03:00am 20.5 18.6 9.1 48 6.1 SSW 9 13 5 7 1011.4 1010.2 0.0
23/02:30am 20.4 18.9 9.0 48 6.1 NE 7 11 4 6 1010.6 1009.5 0.0
23/02:00am 19.6 17.1 8.0 47 6.1 ENE 11 15 6 8 1010.9 1009.7 0.0
23/01:30am 21.1 18.0 8.7 45 6.6 ENE 15 17 8 9 1011.1 1009.9 0.0
23/01:00am 20.7 18.5 8.0 44 6.7 NNE 9 11 5 6 1011.5 1010.3 0.0
23/12:30am 20.9 18.9 8.5 45 6.6 N 9 13 5 7 1011.7 1010.5 0.0
23/12:00am 22.1 19.7 8.6 42 7.3 E 11 13 6 7 1011.6 1010.4 0.0
 
Date/Time
EDT
Temp
°C
App
Temp
°C
Dew
Point
Rel
Hum
%
Delta-T
°C
Wind Press
QNH
hPa
Press
MSL
hPa
Rain
since 9 am
mm
Dir
 
Spd
km/h
Gust
km/h
Spd
kts
Gust
kts
22/11:30pm 21.0 18.9 8.3 44 6.7 ENE 9 13 5 7 1012.3 1011.1 0.0
22/11:00pm 20.9 18.2 7.5 42 7.0 NE 11 13 6 7 1012.1 1010.9 0.0
22/10:30pm 22.6 20.2 7.2 37 8.1 ENE 9 13 5 7 1012.3 1011.1 0.0
22/10:00pm 23.2 20.8 6.9 35 8.6 ENE 9 13 5 7 1012.3 1011.1 0.0
22/09:30pm 24.1 22.2 6.8 33 9.1 E 6 11 3 6 1012.1 1010.9 0.0
22/09:00pm 26.0 25.1 6.1 28 10.5 CALM 0 0 0 0 1011.8 1010.6 0.0
22/08:30pm 27.6 25.5 5.8 25 11.5 S 6 7 3 4 1011.4 1010.2 0.0
22/08:00pm 30.1 27.7 5.4 21 13.1 SSW 7 9 4 5 1011.3 1010.1 0.0
22/07:30pm 32.8 29.9 4.6 17 15.0 WNW 9 13 5 7 1011.0 1009.8 0.0
22/07:00pm 34.5 31.5 4.1 15 16.2 W 9 13 5 7 1010.4 1009.3 0.0
22/06:30pm 35.8 31.5 3.1 13 17.3 W 15 20 8 11 1010.2 1009.1 0.0
22/06:00pm 36.2 31.9 3.4 13 17.5 WSW 15 24 8 13 1010.0 1008.9 0.0
22/05:30pm 35.1 29.1 3.6 14 16.7 WSW 24 30 13 16 1010.0 1008.9 0.0
22/05:00pm 35.5 29.8 2.9 13 17.2 W 22 41 12 22 1010.2 1009.1 0.0
22/04:30pm 35.9 29.1 3.2 13 17.3 W 28 35 15 19 1010.4 1009.3 0.0
22/04:00pm 36.5 31.5 3.7 13 17.6 NW 19 30 10 16 1010.4 1009.3 0.0
22/03:30pm 37.6 33.4 5.6 14 17.8 WNW 17 28 9 15 1010.6 1009.5 0.0
22/03:00pm 37.0 32.1 5.1 14 17.5 WNW 20 32 11 17 1011.0 1009.8 0.0
22/02:30pm 36.2 30.8 4.5 14 17.2 NW 22 28 12 15 1011.3 1010.1 0.0
22/02:00pm 36.6 32.6 6.7 16 16.8 W 17 30 9 16 1011.4 1010.2 0.0
22/01:30pm 35.8 30.9 5.1 15 16.7 NW 20 28 11 15 1011.8 1010.6 0.0
22/01:00pm 36.0 30.8 7.1 17 16.3 WNW 24 35 13 19 1012.0 1010.8 0.0
22/12:30pm 34.4 29.1 6.7 18 15.4 NNW 24 35 13 19 1012.4 1011.2 0.0
22/12:00pm 34.4 30.0 6.7 18 15.4 NW 19 20 10 11 1012.7 1011.6 0.0
22/11:30am 34.1 30.4 6.4 18 15.3 NNW 15 24 8 13 1012.8 1011.7 0.0
22/11:00am 33.5 30.1 7.5 20 14.6 NW 15 28 8 15 1013.1 1012.0 0.0
22/10:30am 32.6 29.7 8.1 22 13.8 NNW 13 22 7 12 1013.1 1012.0 0.0
22/10:00am 31.3 29.0 8.9 25 12.7 N 11 24 6 13 1013.4 1012.3 0.0
22/09:30am 31.2 28.6 9.4 26 12.4 N 13 17 7 9 1013.5 1012.4 0.0
22/09:00am 30.0 27.8 9.5 28 11.7 N 11 19 6 10 1013.4 1012.3 0.0
22/08:30am 27.8 26.4 10.9 35 9.7 NNE 9 11 5 6 1013.5 1012.4 0.0
22/08:00am 24.7 23.3 9.4 38 8.5 NNE 7 9 4 5 1013.7 1012.6 0.0
22/07:30am 21.8 20.2 10.3 48 6.4 NNE 9 11 5 6 1013.4 1012.3 0.0
22/07:00am 17.4 16.4 11.0 66 3.5 N 7 13 4 7 1013.1 1012.0 0.0
22/06:30am 14.0 12.7 9.2 73 2.5 N 6 9 3 5 1012.7 1011.6 0.0
22/06:00am 13.6 12.2 9.6 77 2.1 NE 7 11 4 6 1012.1 1010.9 0.0
22/05:30am 13.4 11.0 8.5 72 2.5 ENE 11 13 6 7 1012.0 1010.8 0.0
22/05:00am 14.1 11.8 9.1 72 2.6 E 11 13 6 7 1011.9 1010.7 0.0
22/04:30am 13.7 12.7 9.0 73 2.4 ENE 4 9 2 5 1011.7 1010.5 0.0
22/04:00am 14.8 13.7 8.3 65 3.3 ENE 4 7 2 4 1011.6 1010.4 0.0
22/03:30am 14.7 13.2 9.1 69 2.9 ENE 7 9 4 5 1011.7 1010.5 0.0
22/03:00am 15.2 15.0 8.9 66 3.3 CALM 0 0 0 0 1011.8 1010.6 0.0
22/02:30am 15.8 14.4 9.7 67 3.2 ENE 7 9 4 5 1011.8 1010.6 0.0
22/02:00am 14.9 12.5 8.8 67 3.2 ENE 11 13 6 7 1012.2 1011.0 0.0
22/01:30am 16.5 14.6 9.0 61 3.9 ENE 9 11 5 6 1012.4 1011.2 0.0
22/01:00am 17.1 16.0 8.3 56 4.6 E 4 9 2 5 1012.6 1011.5 0.0
22/12:30am 18.9 17.0 9.1 53 5.2 E 9 11 5 6 1012.9 1011.8 0.0
22/12:00am 19.8 18.4 9.7 52 5.5 E 7 9 4 5 1013.0 1011.9 0.0
 
Date/Time
EDT
Temp
°C
App
Temp
°C
Dew
Point
Rel
Hum
%
Delta-T
°C
Wind Press
QNH
hPa
Press
MSL
hPa
Rain
since 9 am
mm
Dir
 
Spd
km/h
Gust
km/h
Spd
kts
Gust
kts
21/11:30pm 18.8 18.1 8.7 52 5.3 SSW 2 7 1 4 1013.0 1011.9 0.0
21/11:00pm 19.1 19.0 9.3 53 5.2 CALM 0 0 0 0 1012.9 1011.8 0.0
21/10:30pm 21.2 19.6 8.8 45 6.7 SSW 7 9 4 5 1012.8 1011.7 0.0
21/10:00pm 22.6 20.2 8.7 41 7.5 S 11 11 6 6 1012.7 1011.6 0.0
21/09:30pm 23.7 21.1 9.3 40 7.9 SSW 13 15 7 8 1012.5 1011.3 0.0
21/09:00pm 23.9 21.4 8.3 37 8.4 SSW 11 13 6 7 1012.1 1010.9 0.0
21/08:30pm 25.0 22.6 8.5 35 9.0 SSW 11 15 6 8 1011.6 1010.4 0.0

Other Formats:

Comma delimited format used in spreadsheet applications
http://www.bom.gov.au/fwo/IDN60801/IDN60801.95717.axf

JavaScript Object Notation format (JSON) in row-major order
http://www.bom.gov.au/fwo/IDN60801/IDN60801.95717.json